Terminal Aerodrome Forecast
Issued by NWS Charleston, WV

Current Version | Previous Version | Graphics & Text | Print | Product List | Glossary On
Versions: 1 2 3 4 5 6 7 8 9 10 11 12 13 14 15 16 17 18 19 20
437
FTUS41 KRLX 220307 AAA
TAFBKW
TAF AMD
KBKW 220307Z 2203/2224 00000KT P6SM FEW040
     FM220800 28004KT 5SM BR SCT015
     FM221200 30005KT P6SM BKN015
     FM221600 32006KT P6SM FEW035=

USA.gov is the U.S. government's official web portal to all federal, state and local government web resources and services.